sensor_id;sensor_type;location;lat;lon;timestamp;P1;durP1;ratioP1;P2;durP2;ratioP2
8171;SDS011;4127;47.908;10.850;2024-02-16T00:02:02;2.33;;;2.13;;
8171;SDS011;4127;47.908;10.850;2024-02-16T00:04:29;2.10;;;2.00;;
8171;SDS011;4127;47.908;10.850;2024-02-16T00:06:57;2.17;;;1.97;;
8171;SDS011;4127;47.908;10.850;2024-02-16T00:09:24;2.57;;;2.37;;
8171;SDS011;4127;47.908;10.850;2024-02-16T00:11:51;2.30;;;2.10;;
8171;SDS011;4127;47.908;10.850;2024-02-16T00:14:19;2.23;;;2.13;;
8171;SDS011;4127;47.908;10.850;2024-02-16T00:16:46;1.87;;;1.77;;
8171;SDS011;4127;47.908;10.850;2024-02-16T00:19:14;2.67;;;2.07;;
8171;SDS011;4127;47.908;10.850;2024-02-16T00:21:41;2.13;;;1.90;;
8171;SDS011;4127;47.908;10.850;2024-02-16T00:24:09;1.87;;;1.77;;
8171;SDS011;4127;47.908;10.850;2024-02-16T00:26:36;2.23;;;2.07;;
8171;SDS011;4127;47.908;10.850;2024-02-16T00:29:06;2.03;;;1.90;;
8171;SDS011;4127;47.908;10.850;2024-02-16T00:31:33;2.40;;;2.20;;
8171;SDS011;4127;47.908;10.850;2024-02-16T00:34:00;2.93;;;2.57;;
8171;SDS011;4127;47.908;10.850;2024-02-16T00:36:27;4.93;;;3.53;;
8171;SDS011;4127;47.908;10.850;2024-02-16T00:38:57;5.60;;;3.30;;
8171;SDS011;4127;47.908;10.850;2024-02-16T00:41:25;4.47;;;3.03;;
8171;SDS011;4127;47.908;10.850;2024-02-16T00:43:52;3.50;;;2.33;;
8171;SDS011;4127;47.908;10.850;2024-02-16T00:46:19;2.17;;;2.00;;
8171;SDS011;4127;47.908;10.850;2024-02-16T00:48:49;2.20;;;2.00;;
8171;SDS011;4127;47.908;10.850;2024-02-16T00:51:17;2.40;;;2.17;;
8171;SDS011;4127;47.908;10.850;2024-02-16T00:53:45;2.13;;;1.93;;
8171;SDS011;4127;47.908;10.850;2024-02-16T00:56:12;2.27;;;1.83;;
8171;SDS011;4127;47.908;10.850;2024-02-16T00:58:40;2.33;;;1.73;;
8171;SDS011;4127;47.908;10.850;2024-02-16T01:01:09;1.83;;;1.73;;
8171;SDS011;4127;47.908;10.850;2024-02-16T01:03:38;2.30;;;2.10;;
8171;SDS011;4127;47.908;10.850;2024-02-16T01:06:05;2.27;;;2.07;;
8171;SDS011;4127;47.908;10.850;2024-02-16T01:08:32;2.27;;;2.07;;
8171;SDS011;4127;47.908;10.850;2024-02-16T01:10:59;2.10;;;1.90;;
8171;SDS011;4127;47.908;10.850;2024-02-16T01:13:26;1.80;;;1.70;;
8171;SDS011;4127;47.908;10.850;2024-02-16T01:15:53;1.83;;;1.73;;
8171;SDS011;4127;47.908;10.850;2024-02-16T01:18:20;1.90;;;1.80;;
8171;SDS011;4127;47.908;10.850;2024-02-16T01:20:47;2.13;;;1.90;;
8171;SDS011;4127;47.908;10.850;2024-02-16T01:23:14;2.37;;;2.17;;
8171;SDS011;4127;47.908;10.850;2024-02-16T01:25:41;2.27;;;2.07;;
8171;SDS011;4127;47.908;10.850;2024-02-16T01:28:08;2.27;;;2.07;;
8171;SDS011;4127;47.908;10.850;2024-02-16T01:30:35;2.20;;;2.00;;
8171;SDS011;4127;47.908;10.850;2024-02-16T01:33:03;2.17;;;1.90;;
8171;SDS011;4127;47.908;10.850;2024-02-16T01:35:31;2.40;;;2.20;;
8171;SDS011;4127;47.908;10.850;2024-02-16T01:37:59;2.03;;;1.93;;
8171;SDS011;4127;47.908;10.850;2024-02-16T01:40:28;7.40;;;2.33;;
8171;SDS011;4127;47.908;10.850;2024-02-16T01:42:55;1.70;;;1.60;;
8171;SDS011;4127;47.908;10.850;2024-02-16T01:45:21;3.07;;;2.00;;
8171;SDS011;4127;47.908;10.850;2024-02-16T01:47:49;2.23;;;1.80;;
8171;SDS011;4127;47.908;10.850;2024-02-16T01:50:18;1.80;;;1.70;;
8171;SDS011;4127;47.908;10.850;2024-02-16T01:52:47;1.80;;;1.70;;
8171;SDS011;4127;47.908;10.850;2024-02-16T01:55:15;1.83;;;1.73;;
8171;SDS011;4127;47.908;10.850;2024-02-16T01:57:43;2.23;;;1.47;;
8171;SDS011;4127;47.908;10.850;2024-02-16T02:00:12;1.70;;;1.60;;
8171;SDS011;4127;47.908;10.850;2024-02-16T02:02:43;1.50;;;1.40;;
8171;SDS011;4127;47.908;10.850;2024-02-16T02:05:12;1.70;;;1.60;;
8171;SDS011;4127;47.908;10.850;2024-02-16T02:07:39;1.90;;;1.80;;
8171;SDS011;4127;47.908;10.850;2024-02-16T02:10:07;1.73;;;1.63;;
8171;SDS011;4127;47.908;10.850;2024-02-16T02:12:34;1.97;;;1.50;;
8171;SDS011;4127;47.908;10.850;2024-02-16T02:15:01;1.90;;;1.80;;
8171;SDS011;4127;47.908;10.850;2024-02-16T02:17:29;1.80;;;1.70;;
8171;SDS011;4127;47.908;10.850;2024-02-16T02:19:56;2.00;;;1.80;;
8171;SDS011;4127;47.908;10.850;2024-02-16T02:22:23;1.60;;;1.50;;
8171;SDS011;4127;47.908;10.850;2024-02-16T02:24:50;1.73;;;1.63;;
8171;SDS011;4127;47.908;10.850;2024-02-16T02:27:17;1.80;;;1.70;;
8171;SDS011;4127;47.908;10.850;2024-02-16T02:29:44;1.37;;;1.27;;
8171;SDS011;4127;47.908;10.850;2024-02-16T02:32:11;1.67;;;1.57;;
8171;SDS011;4127;47.908;10.850;2024-02-16T02:34:39;1.43;;;1.40;;
8171;SDS011;4127;47.908;10.850;2024-02-16T02:37:06;1.80;;;1.70;;
8171;SDS011;4127;47.908;10.850;2024-02-16T02:39:34;1.63;;;1.53;;
8171;SDS011;4127;47.908;10.850;2024-02-16T02:42:01;1.80;;;1.70;;
8171;SDS011;4127;47.908;10.850;2024-02-16T02:44:29;1.40;;;1.30;;
8171;SDS011;4127;47.908;10.850;2024-02-16T02:46:57;1.60;;;1.30;;
8171;SDS011;4127;47.908;10.850;2024-02-16T02:49:24;1.20;;;1.20;;
8171;SDS011;4127;47.908;10.850;2024-02-16T02:51:51;2.33;;;1.83;;
8171;SDS011;4127;47.908;10.850;2024-02-16T02:54:18;1.53;;;1.40;;
8171;SDS011;4127;47.908;10.850;2024-02-16T02:56:45;1.50;;;1.40;;
8171;SDS011;4127;47.908;10.850;2024-02-16T02:59:12;1.57;;;1.47;;
8171;SDS011;4127;47.908;10.850;2024-02-16T03:01:40;1.53;;;1.43;;
8171;SDS011;4127;47.908;10.850;2024-02-16T03:04:07;1.40;;;1.30;;
8171;SDS011;4127;47.908;10.850;2024-02-16T03:06:34;1.50;;;1.27;;
8171;SDS011;4127;47.908;10.850;2024-02-16T03:09:01;1.40;;;1.30;;
8171;SDS011;4127;47.908;10.850;2024-02-16T03:11:28;1.57;;;1.47;;
8171;SDS011;4127;47.908;10.850;2024-02-16T03:13:55;3.03;;;1.30;;
8171;SDS011;4127;47.908;10.850;2024-02-16T03:16:21;1.57;;;1.47;;
8171;SDS011;4127;47.908;10.850;2024-02-16T03:18:49;1.53;;;1.33;;
8171;SDS011;4127;47.908;10.850;2024-02-16T03:21:16;1.60;;;1.50;;
8171;SDS011;4127;47.908;10.850;2024-02-16T03:23:44;1.53;;;1.43;;
8171;SDS011;4127;47.908;10.850;2024-02-16T03:26:18;1.50;;;1.40;;
8171;SDS011;4127;47.908;10.850;2024-02-16T03:28:46;1.43;;;1.33;;
8171;SDS011;4127;47.908;10.850;2024-02-16T03:31:20;1.97;;;1.40;;
8171;SDS011;4127;47.908;10.850;2024-02-16T03:33:49;1.13;;;1.07;;
8171;SDS011;4127;47.908;10.850;2024-02-16T03:36:18;1.20;;;1.20;;
8171;SDS011;4127;47.908;10.850;2024-02-16T03:38:46;1.30;;;1.20;;
8171;SDS011;4127;47.908;10.850;2024-02-16T03:41:18;1.37;;;1.30;;
8171;SDS011;4127;47.908;10.850;2024-02-16T03:43:47;1.60;;;1.50;;
8171;SDS011;4127;47.908;10.850;2024-02-16T03:46:13;1.40;;;1.30;;
8171;SDS011;4127;47.908;10.850;2024-02-16T03:48:40;1.30;;;1.20;;
8171;SDS011;4127;47.908;10.850;2024-02-16T03:51:08;1.63;;;1.53;;
8171;SDS011;4127;47.908;10.850;2024-02-16T03:53:35;1.50;;;1.40;;
8171;SDS011;4127;47.908;10.850;2024-02-16T03:56:02;1.37;;;1.33;;
8171;SDS011;4127;47.908;10.850;2024-02-16T03:58:30;1.50;;;1.40;;
8171;SDS011;4127;47.908;10.850;2024-02-16T04:00:58;1.67;;;1.57;;
8171;SDS011;4127;47.908;10.850;2024-02-16T04:03:25;1.40;;;1.30;;
8171;SDS011;4127;47.908;10.850;2024-02-16T04:05:51;2.93;;;1.57;;
8171;SDS011;4127;47.908;10.850;2024-02-16T04:08:19;1.50;;;1.40;;
8171;SDS011;4127;47.908;10.850;2024-02-16T04:10:46;1.50;;;1.40;;
8171;SDS011;4127;47.908;10.850;2024-02-16T04:13:13;1.10;;;1.10;;
8171;SDS011;4127;47.908;10.850;2024-02-16T04:15:40;1.43;;;1.33;;
8171;SDS011;4127;47.908;10.850;2024-02-16T04:18:07;1.60;;;1.50;;
8171;SDS011;4127;47.908;10.850;2024-02-16T04:20:35;1.23;;;1.23;;
8171;SDS011;4127;47.908;10.850;2024-02-16T04:23:04;1.50;;;1.40;;
8171;SDS011;4127;47.908;10.850;2024-02-16T04:25:31;1.60;;;1.50;;
8171;SDS011;4127;47.908;10.850;2024-02-16T04:27:58;1.70;;;1.60;;
8171;SDS011;4127;47.908;10.850;2024-02-16T04:30:25;1.60;;;1.33;;
8171;SDS011;4127;47.908;10.850;2024-02-16T04:32:52;1.47;;;1.37;;
8171;SDS011;4127;47.908;10.850;2024-02-16T04:35:19;1.53;;;1.43;;
8171;SDS011;4127;47.908;10.850;2024-02-16T04:37:46;1.37;;;1.27;;
8171;SDS011;4127;47.908;10.850;2024-02-16T04:40:13;1.20;;;1.20;;
8171;SDS011;4127;47.908;10.850;2024-02-16T04:42:40;1.40;;;1.30;;
8171;SDS011;4127;47.908;10.850;2024-02-16T04:45:07;1.83;;;1.73;;
8171;SDS011;4127;47.908;10.850;2024-02-16T04:47:37;1.43;;;1.33;;
8171;SDS011;4127;47.908;10.850;2024-02-16T04:50:05;1.40;;;1.30;;
8171;SDS011;4127;47.908;10.850;2024-02-16T04:52:36;1.40;;;1.30;;
8171;SDS011;4127;47.908;10.850;2024-02-16T04:55:04;1.30;;;1.20;;
8171;SDS011;4127;47.908;10.850;2024-02-16T04:57:33;1.40;;;1.30;;
8171;SDS011;4127;47.908;10.850;2024-02-16T05:00:00;1.33;;;1.30;;
8171;SDS011;4127;47.908;10.850;2024-02-16T05:02:27;1.60;;;1.50;;
8171;SDS011;4127;47.908;10.850;2024-02-16T05:04:54;1.50;;;1.40;;
8171;SDS011;4127;47.908;10.850;2024-02-16T05:07:21;1.40;;;1.30;;
8171;SDS011;4127;47.908;10.850;2024-02-16T05:09:48;1.37;;;1.27;;
8171;SDS011;4127;47.908;10.850;2024-02-16T05:12:16;1.27;;;1.27;;
8171;SDS011;4127;47.908;10.850;2024-02-16T05:14:47;1.23;;;1.20;;
8171;SDS011;4127;47.908;10.850;2024-02-16T05:17:17;1.50;;;1.40;;
8171;SDS011;4127;47.908;10.850;2024-02-16T05:19:45;1.60;;;1.50;;
8171;SDS011;4127;47.908;10.850;2024-02-16T05:22:12;2.00;;;1.43;;
8171;SDS011;4127;47.908;10.850;2024-02-16T05:24:39;1.47;;;1.37;;
8171;SDS011;4127;47.908;10.850;2024-02-16T05:27:06;1.30;;;1.20;;
8171;SDS011;4127;47.908;10.850;2024-02-16T05:29:33;1.40;;;1.30;;
8171;SDS011;4127;47.908;10.850;2024-02-16T05:32:00;1.60;;;1.50;;
8171;SDS011;4127;47.908;10.850;2024-02-16T05:34:27;1.83;;;1.73;;
8171;SDS011;4127;47.908;10.850;2024-02-16T05:36:58;1.90;;;1.80;;
8171;SDS011;4127;47.908;10.850;2024-02-16T05:39:27;1.93;;;1.83;;
8171;SDS011;4127;47.908;10.850;2024-02-16T05:41:58;2.10;;;1.90;;
8171;SDS011;4127;47.908;10.850;2024-02-16T05:44:25;1.80;;;1.70;;
8171;SDS011;4127;47.908;10.850;2024-02-16T05:46:53;1.77;;;1.67;;
8171;SDS011;4127;47.908;10.850;2024-02-16T05:49:20;1.87;;;1.77;;
8171;SDS011;4127;47.908;10.850;2024-02-16T05:51:47;1.80;;;1.70;;
8171;SDS011;4127;47.908;10.850;2024-02-16T05:54:44;2.13;;;1.67;;
8171;SDS011;4127;47.908;10.850;2024-02-16T05:57:12;1.47;;;1.37;;
8171;SDS011;4127;47.908;10.850;2024-02-16T05:59:39;2.30;;;1.50;;
8171;SDS011;4127;47.908;10.850;2024-02-16T06:02:08;1.70;;;1.60;;
8171;SDS011;4127;47.908;10.850;2024-02-16T06:04:37;1.67;;;1.57;;
8171;SDS011;4127;47.908;10.850;2024-02-16T06:07:05;1.57;;;1.47;;
8171;SDS011;4127;47.908;10.850;2024-02-16T06:09:32;1.70;;;1.60;;
8171;SDS011;4127;47.908;10.850;2024-02-16T06:12:04;1.60;;;1.50;;
8171;SDS011;4127;47.908;10.850;2024-02-16T06:14:33;1.53;;;1.43;;
8171;SDS011;4127;47.908;10.850;2024-02-16T06:17:00;1.63;;;1.53;;
8171;SDS011;4127;47.908;10.850;2024-02-16T06:19:27;1.33;;;1.23;;
8171;SDS011;4127;47.908;10.850;2024-02-16T06:21:55;1.60;;;1.50;;
8171;SDS011;4127;47.908;10.850;2024-02-16T06:24:22;1.40;;;1.30;;
8171;SDS011;4127;47.908;10.850;2024-02-16T06:26:50;1.77;;;1.67;;
8171;SDS011;4127;47.908;10.850;2024-02-16T06:29:22;1.20;;;1.20;;
8171;SDS011;4127;47.908;10.850;2024-02-16T06:31:49;1.70;;;1.60;;
8171;SDS011;4127;47.908;10.850;2024-02-16T06:34:17;1.90;;;1.40;;
8171;SDS011;4127;47.908;10.850;2024-02-16T06:36:44;1.73;;;1.63;;
8171;SDS011;4127;47.908;10.850;2024-02-16T06:39:11;1.60;;;1.50;;
8171;SDS011;4127;47.908;10.850;2024-02-16T06:41:46;1.70;;;1.60;;
8171;SDS011;4127;47.908;10.850;2024-02-16T06:44:13;1.63;;;1.53;;
8171;SDS011;4127;47.908;10.850;2024-02-16T06:46:43;1.93;;;1.83;;
8171;SDS011;4127;47.908;10.850;2024-02-16T06:49:10;1.47;;;1.37;;
8171;SDS011;4127;47.908;10.850;2024-02-16T06:51:37;1.83;;;1.73;;
8171;SDS011;4127;47.908;10.850;2024-02-16T06:54:04;1.67;;;1.57;;
8171;SDS011;4127;47.908;10.850;2024-02-16T06:56:31;1.53;;;1.43;;
8171;SDS011;4127;47.908;10.850;2024-02-16T06:58:58;1.63;;;1.53;;
8171;SDS011;4127;47.908;10.850;2024-02-16T07:01:26;1.50;;;1.40;;
8171;SDS011;4127;47.908;10.850;2024-02-16T07:03:55;1.90;;;1.80;;
8171;SDS011;4127;47.908;10.850;2024-02-16T07:06:22;2.13;;;1.90;;
8171;SDS011;4127;47.908;10.850;2024-02-16T07:08:49;2.07;;;1.87;;
8171;SDS011;4127;47.908;10.850;2024-02-16T07:11:17;1.60;;;1.50;;
8171;SDS011;4127;47.908;10.850;2024-02-16T07:13:47;1.40;;;1.30;;
8171;SDS011;4127;47.908;10.850;2024-02-16T07:16:14;1.40;;;1.30;;
8171;SDS011;4127;47.908;10.850;2024-02-16T07:18:41;1.60;;;1.50;;
8171;SDS011;4127;47.908;10.850;2024-02-16T07:21:09;1.70;;;1.60;;
8171;SDS011;4127;47.908;10.850;2024-02-16T07:23:36;1.87;;;1.77;;
8171;SDS011;4127;47.908;10.850;2024-02-16T07:26:03;2.10;;;1.90;;
8171;SDS011;4127;47.908;10.850;2024-02-16T07:28:33;1.90;;;1.70;;
8171;SDS011;4127;47.908;10.850;2024-02-16T07:31:00;1.60;;;1.43;;
8171;SDS011;4127;47.908;10.850;2024-02-16T07:33:28;1.70;;;1.57;;
8171;SDS011;4127;47.908;10.850;2024-02-16T07:35:56;1.77;;;1.67;;
8171;SDS011;4127;47.908;10.850;2024-02-16T07:38:23;1.40;;;1.30;;
8171;SDS011;4127;47.908;10.850;2024-02-16T07:40:49;1.37;;;1.27;;
8171;SDS011;4127;47.908;10.850;2024-02-16T07:43:17;1.87;;;1.77;;
8171;SDS011;4127;47.908;10.850;2024-02-16T07:45:45;1.90;;;1.63;;
8171;SDS011;4127;47.908;10.850;2024-02-16T07:48:12;2.00;;;1.90;;
8171;SDS011;4127;47.908;10.850;2024-02-16T07:50:39;2.30;;;2.10;;
8171;SDS011;4127;47.908;10.850;2024-02-16T07:53:06;1.87;;;1.77;;
8171;SDS011;4127;47.908;10.850;2024-02-16T07:55:34;1.47;;;1.40;;
8171;SDS011;4127;47.908;10.850;2024-02-16T07:58:01;2.40;;;1.80;;
8171;SDS011;4127;47.908;10.850;2024-02-16T08:00:29;2.37;;;1.80;;
8171;SDS011;4127;47.908;10.850;2024-02-16T08:02:56;1.50;;;1.40;;
8171;SDS011;4127;47.908;10.850;2024-02-16T08:05:23;2.00;;;1.63;;
8171;SDS011;4127;47.908;10.850;2024-02-16T08:07:52;1.67;;;1.57;;
8171;SDS011;4127;47.908;10.850;2024-02-16T08:10:19;1.67;;;1.57;;
8171;SDS011;4127;47.908;10.850;2024-02-16T08:12:49;1.80;;;1.70;;
8171;SDS011;4127;47.908;10.850;2024-02-16T08:15:17;2.07;;;1.50;;
8171;SDS011;4127;47.908;10.850;2024-02-16T08:17:49;1.50;;;1.40;;
8171;SDS011;4127;47.908;10.850;2024-02-16T08:20:20;1.60;;;1.50;;
8171;SDS011;4127;47.908;10.850;2024-02-16T08:22:47;1.37;;;1.27;;
8171;SDS011;4127;47.908;10.850;2024-02-16T08:25:14;1.70;;;1.60;;
8171;SDS011;4127;47.908;10.850;2024-02-16T08:27:41;2.13;;;1.93;;
8171;SDS011;4127;47.908;10.850;2024-02-16T08:30:08;2.10;;;1.90;;
8171;SDS011;4127;47.908;10.850;2024-02-16T08:32:36;2.87;;;2.20;;
8171;SDS011;4127;47.908;10.850;2024-02-16T08:35:03;2.80;;;2.50;;
8171;SDS011;4127;47.908;10.850;2024-02-16T08:37:30;2.53;;;2.33;;
8171;SDS011;4127;47.908;10.850;2024-02-16T08:39:58;3.80;;;2.60;;
8171;SDS011;4127;47.908;10.850;2024-02-16T08:42:25;3.10;;;2.90;;
8171;SDS011;4127;47.908;10.850;2024-02-16T08:44:52;3.43;;;3.13;;
8171;SDS011;4127;47.908;10.850;2024-02-16T08:47:19;4.10;;;3.20;;
8171;SDS011;4127;47.908;10.850;2024-02-16T08:49:46;3.43;;;2.87;;
8171;SDS011;4127;47.908;10.850;2024-02-16T08:52:13;3.00;;;2.70;;
8171;SDS011;4127;47.908;10.850;2024-02-16T08:54:40;3.00;;;2.70;;
8171;SDS011;4127;47.908;10.850;2024-02-16T08:57:09;3.10;;;2.80;;
8171;SDS011;4127;47.908;10.850;2024-02-16T08:59:36;2.70;;;2.50;;
8171;SDS011;4127;47.908;10.850;2024-02-16T09:02:04;2.37;;;2.13;;
8171;SDS011;4127;47.908;10.850;2024-02-16T09:04:31;1.87;;;1.77;;
8171;SDS011;4127;47.908;10.850;2024-02-16T09:06:59;1.57;;;1.47;;
8171;SDS011;4127;47.908;10.850;2024-02-16T09:09:26;2.30;;;1.70;;
8171;SDS011;4127;47.908;10.850;2024-02-16T09:11:53;1.57;;;1.47;;
8171;SDS011;4127;47.908;10.850;2024-02-16T09:14:20;1.70;;;1.60;;
8171;SDS011;4127;47.908;10.850;2024-02-16T09:16:50;1.50;;;1.40;;
8171;SDS011;4127;47.908;10.850;2024-02-16T09:19:18;1.70;;;1.60;;
8171;SDS011;4127;47.908;10.850;2024-02-16T09:21:46;2.10;;;1.80;;
8171;SDS011;4127;47.908;10.850;2024-02-16T09:24:15;2.07;;;1.90;;
8171;SDS011;4127;47.908;10.850;2024-02-16T09:26:44;3.23;;;2.40;;
8171;SDS011;4127;47.908;10.850;2024-02-16T09:29:15;2.30;;;2.10;;
8171;SDS011;4127;47.908;10.850;2024-02-16T09:31:44;3.47;;;3.17;;
8171;SDS011;4127;47.908;10.850;2024-02-16T09:34:11;8.53;;;7.67;;
8171;SDS011;4127;47.908;10.850;2024-02-16T09:36:39;12.87;;;11.17;;
8171;SDS011;4127;47.908;10.850;2024-02-16T09:39:06;3.10;;;2.80;;
8171;SDS011;4127;47.908;10.850;2024-02-16T09:41:34;1.50;;;1.40;;
8171;SDS011;4127;47.908;10.850;2024-02-16T09:44:03;1.27;;;1.17;;
8171;SDS011;4127;47.908;10.850;2024-02-16T09:46:30;2.00;;;1.80;;
8171;SDS011;4127;47.908;10.850;2024-02-16T09:49:02;3.13;;;1.70;;
8171;SDS011;4127;47.908;10.850;2024-02-16T09:51:31;1.70;;;1.60;;
8171;SDS011;4127;47.908;10.850;2024-02-16T09:54:01;2.27;;;1.80;;
8171;SDS011;4127;47.908;10.850;2024-02-16T09:56:29;1.83;;;1.73;;
8171;SDS011;4127;47.908;10.850;2024-02-16T09:58:56;2.20;;;2.00;;
8171;SDS011;4127;47.908;10.850;2024-02-16T10:01:23;4.20;;;2.20;;
8171;SDS011;4127;47.908;10.850;2024-02-16T10:03:50;1.93;;;1.73;;
8171;SDS011;4127;47.908;10.850;2024-02-16T10:06:17;4.43;;;3.20;;
8171;SDS011;4127;47.908;10.850;2024-02-16T10:08:50;4.43;;;2.67;;
8171;SDS011;4127;47.908;10.850;2024-02-16T10:11:19;2.00;;;1.80;;
8171;SDS011;4127;47.908;10.850;2024-02-16T10:13:56;2.07;;;1.80;;
8171;SDS011;4127;47.908;10.850;2024-02-16T10:16:29;1.87;;;1.53;;
8171;SDS011;4127;47.908;10.850;2024-02-16T10:19:03;1.97;;;1.63;;
8171;SDS011;4127;47.908;10.850;2024-02-16T10:21:32;1.80;;;1.70;;
8171;SDS011;4127;47.908;10.850;2024-02-16T10:24:01;1.93;;;1.80;;
8171;SDS011;4127;47.908;10.850;2024-02-16T10:26:35;1.53;;;1.43;;
8171;SDS011;4127;47.908;10.850;2024-02-16T10:29:08;2.07;;;1.77;;
8171;SDS011;4127;47.908;10.850;2024-02-16T10:31:36;3.13;;;1.43;;
8171;SDS011;4127;47.908;10.850;2024-02-16T10:34:04;1.97;;;1.60;;
8171;SDS011;4127;47.908;10.850;2024-02-16T10:36:34;1.70;;;1.60;;
8171;SDS011;4127;47.908;10.850;2024-02-16T10:39:02;2.17;;;1.83;;
8171;SDS011;4127;47.908;10.850;2024-02-16T10:41:35;1.93;;;1.70;;
8171;SDS011;4127;47.908;10.850;2024-02-16T10:44:04;1.70;;;1.50;;
8171;SDS011;4127;47.908;10.850;2024-02-16T10:46:33;1.47;;;1.37;;
8171;SDS011;4127;47.908;10.850;2024-02-16T10:49:00;1.40;;;1.30;;
8171;SDS011;4127;47.908;10.850;2024-02-16T10:54:05;1.80;;;1.70;;
8171;SDS011;4127;47.908;10.850;2024-02-16T10:56:38;2.07;;;1.60;;
8171;SDS011;4127;47.908;10.850;2024-02-16T10:59:08;1.50;;;1.40;;
8171;SDS011;4127;47.908;10.850;2024-02-16T11:01:39;1.60;;;1.50;;
8171;SDS011;4127;47.908;10.850;2024-02-16T11:04:10;1.60;;;1.50;;
8171;SDS011;4127;47.908;10.850;2024-02-16T11:06:46;1.53;;;1.43;;
8171;SDS011;4127;47.908;10.850;2024-02-16T11:09:26;1.77;;;1.50;;
8171;SDS011;4127;47.908;10.850;2024-02-16T11:12:01;1.97;;;1.70;;
8171;SDS011;4127;47.908;10.850;2024-02-16T11:14:36;1.77;;;1.60;;
8171;SDS011;4127;47.908;10.850;2024-02-16T11:17:12;2.13;;;1.60;;
8171;SDS011;4127;47.908;10.850;2024-02-16T11:19:48;1.70;;;1.60;;
8171;SDS011;4127;47.908;10.850;2024-02-16T11:22:20;2.97;;;1.83;;
8171;SDS011;4127;47.908;10.850;2024-02-16T11:24:52;1.80;;;1.70;;
8171;SDS011;4127;47.908;10.850;2024-02-16T11:27:25;2.13;;;1.70;;
8171;SDS011;4127;47.908;10.850;2024-02-16T11:29:53;2.33;;;1.70;;
8171;SDS011;4127;47.908;10.850;2024-02-16T11:32:22;2.00;;;1.63;;
8171;SDS011;4127;47.908;10.850;2024-02-16T11:34:49;3.43;;;1.70;;
8171;SDS011;4127;47.908;10.850;2024-02-16T11:37:16;1.60;;;1.50;;
8171;SDS011;4127;47.908;10.850;2024-02-16T11:39:44;2.20;;;1.63;;
8171;SDS011;4127;47.908;10.850;2024-02-16T11:42:13;3.97;;;1.33;;
8171;SDS011;4127;47.908;10.850;2024-02-16T11:44:53;1.57;;;1.47;;
8171;SDS011;4127;47.908;10.850;2024-02-16T11:47:22;1.70;;;1.60;;
8171;SDS011;4127;47.908;10.850;2024-02-16T11:50:04;1.77;;;1.67;;
8171;SDS011;4127;47.908;10.850;2024-02-16T11:52:38;2.50;;;1.70;;
8171;SDS011;4127;47.908;10.850;2024-02-16T11:55:09;2.27;;;1.63;;
8171;SDS011;4127;47.908;10.850;2024-02-16T11:57:37;2.10;;;1.60;;
8171;SDS011;4127;47.908;10.850;2024-02-16T12:00:05;2.43;;;1.60;;
8171;SDS011;4127;47.908;10.850;2024-02-16T12:02:35;1.70;;;1.50;;
8171;SDS011;4127;47.908;10.850;2024-02-16T12:05:03;2.53;;;1.80;;
8171;SDS011;4127;47.908;10.850;2024-02-16T12:07:31;2.17;;;1.77;;
8171;SDS011;4127;47.908;10.850;2024-02-16T12:10:01;1.50;;;1.37;;
8171;SDS011;4127;47.908;10.850;2024-02-16T12:12:32;2.40;;;1.67;;
8171;SDS011;4127;47.908;10.850;2024-02-16T12:15:00;1.90;;;1.60;;
8171;SDS011;4127;47.908;10.850;2024-02-16T12:17:27;1.60;;;1.50;;
8171;SDS011;4127;47.908;10.850;2024-02-16T12:19:54;2.47;;;1.80;;
8171;SDS011;4127;47.908;10.850;2024-02-16T12:22:21;3.00;;;1.73;;
8171;SDS011;4127;47.908;10.850;2024-02-16T12:24:50;1.80;;;1.70;;
8171;SDS011;4127;47.908;10.850;2024-02-16T12:27:17;2.30;;;1.70;;
8171;SDS011;4127;47.908;10.850;2024-02-16T12:29:45;1.97;;;1.47;;
8171;SDS011;4127;47.908;10.850;2024-02-16T12:32:13;2.10;;;1.83;;
8171;SDS011;4127;47.908;10.850;2024-02-16T12:34:45;1.73;;;1.60;;
8171;SDS011;4127;47.908;10.850;2024-02-16T12:37:13;1.53;;;1.43;;
8171;SDS011;4127;47.908;10.850;2024-02-16T12:39:40;1.60;;;1.50;;
8171;SDS011;4127;47.908;10.850;2024-02-16T12:42:07;2.90;;;1.63;;
8171;SDS011;4127;47.908;10.850;2024-02-16T12:44:34;1.97;;;1.70;;
8171;SDS011;4127;47.908;10.850;2024-02-16T12:47:01;1.90;;;1.50;;
8171;SDS011;4127;47.908;10.850;2024-02-16T12:49:29;2.00;;;1.70;;
8171;SDS011;4127;47.908;10.850;2024-02-16T12:51:56;1.67;;;1.57;;
8171;SDS011;4127;47.908;10.850;2024-02-16T12:54:23;1.70;;;1.60;;
8171;SDS011;4127;47.908;10.850;2024-02-16T12:56:50;2.60;;;1.70;;
8171;SDS011;4127;47.908;10.850;2024-02-16T12:59:17;2.20;;;1.70;;
8171;SDS011;4127;47.908;10.850;2024-02-16T13:01:44;2.00;;;1.90;;
8171;SDS011;4127;47.908;10.850;2024-02-16T13:04:12;2.30;;;1.83;;
8171;SDS011;4127;47.908;10.850;2024-02-16T13:06:48;2.37;;;1.70;;
8171;SDS011;4127;47.908;10.850;2024-02-16T13:09:15;3.23;;;1.77;;
8171;SDS011;4127;47.908;10.850;2024-02-16T13:11:42;2.47;;;2.20;;
8171;SDS011;4127;47.908;10.850;2024-02-16T13:14:09;1.93;;;1.50;;
8171;SDS011;4127;47.908;10.850;2024-02-16T13:16:36;2.43;;;1.67;;
8171;SDS011;4127;47.908;10.850;2024-02-16T13:19:03;2.57;;;1.63;;
8171;SDS011;4127;47.908;10.850;2024-02-16T13:21:30;2.13;;;1.60;;
8171;SDS011;4127;47.908;10.850;2024-02-16T13:23:57;1.77;;;1.50;;
8171;SDS011;4127;47.908;10.850;2024-02-16T13:26:25;4.60;;;2.30;;
8171;SDS011;4127;47.908;10.850;2024-02-16T13:28:52;3.10;;;1.70;;
8171;SDS011;4127;47.908;10.850;2024-02-16T13:31:21;2.23;;;1.87;;
8171;SDS011;4127;47.908;10.850;2024-02-16T13:33:49;3.00;;;1.90;;
8171;SDS011;4127;47.908;10.850;2024-02-16T13:36:17;2.47;;;2.03;;
8171;SDS011;4127;47.908;10.850;2024-02-16T13:38:44;2.57;;;1.60;;
8171;SDS011;4127;47.908;10.850;2024-02-16T13:41:11;4.27;;;1.70;;
8171;SDS011;4127;47.908;10.850;2024-02-16T13:43:41;3.50;;;1.97;;
8171;SDS011;4127;47.908;10.850;2024-02-16T13:46:08;2.70;;;2.20;;
8171;SDS011;4127;47.908;10.850;2024-02-16T13:48:35;3.90;;;2.70;;
8171;SDS011;4127;47.908;10.850;2024-02-16T13:51:04;3.37;;;2.60;;
8171;SDS011;4127;47.908;10.850;2024-02-16T13:53:34;2.77;;;1.90;;
8171;SDS011;4127;47.908;10.850;2024-02-16T13:56:02;2.70;;;2.17;;
8171;SDS011;4127;47.908;10.850;2024-02-16T13:58:30;3.67;;;2.00;;
8171;SDS011;4127;47.908;10.850;2024-02-16T14:00:58;5.23;;;2.23;;
8171;SDS011;4127;47.908;10.850;2024-02-16T14:03:26;2.93;;;2.40;;
8171;SDS011;4127;47.908;10.850;2024-02-16T14:05:53;4.63;;;2.10;;
8171;SDS011;4127;47.908;10.850;2024-02-16T14:08:20;4.30;;;3.07;;
8171;SDS011;4127;47.908;10.850;2024-02-16T14:10:47;2.87;;;2.27;;
8171;SDS011;4127;47.908;10.850;2024-02-16T14:13:14;4.17;;;2.23;;
8171;SDS011;4127;47.908;10.850;2024-02-16T14:15:42;2.40;;;2.10;;
8171;SDS011;4127;47.908;10.850;2024-02-16T14:18:09;2.40;;;2.03;;
8171;SDS011;4127;47.908;10.850;2024-02-16T14:20:47;2.73;;;2.20;;
8171;SDS011;4127;47.908;10.850;2024-02-16T14:23:14;2.93;;;2.13;;
8171;SDS011;4127;47.908;10.850;2024-02-16T14:25:41;3.27;;;2.20;;
8171;SDS011;4127;47.908;10.850;2024-02-16T14:28:08;3.27;;;2.40;;
8171;SDS011;4127;47.908;10.850;2024-02-16T14:30:35;6.93;;;6.07;;
8171;SDS011;4127;47.908;10.850;2024-02-16T14:33:02;4.37;;;3.57;;
8171;SDS011;4127;47.908;10.850;2024-02-16T14:35:31;6.17;;;4.83;;
8171;SDS011;4127;47.908;10.850;2024-02-16T14:38:03;5.20;;;3.67;;
8171;SDS011;4127;47.908;10.850;2024-02-16T14:40:31;3.30;;;2.50;;
8171;SDS011;4127;47.908;10.850;2024-02-16T14:42:59;3.47;;;2.57;;
8171;SDS011;4127;47.908;10.850;2024-02-16T14:45:27;4.43;;;2.00;;
8171;SDS011;4127;47.908;10.850;2024-02-16T14:47:55;4.13;;;2.33;;
8171;SDS011;4127;47.908;10.850;2024-02-16T14:50:22;3.73;;;2.00;;
8171;SDS011;4127;47.908;10.850;2024-02-16T14:52:49;4.07;;;2.40;;
8171;SDS011;4127;47.908;10.850;2024-02-16T14:55:16;2.93;;;2.40;;
8171;SDS011;4127;47.908;10.850;2024-02-16T14:57:43;2.23;;;2.03;;
8171;SDS011;4127;47.908;10.850;2024-02-16T15:00:11;3.47;;;2.10;;
8171;SDS011;4127;47.908;10.850;2024-02-16T15:02:39;3.03;;;2.20;;
8171;SDS011;4127;47.908;10.850;2024-02-16T15:05:09;2.70;;;2.23;;
8171;SDS011;4127;47.908;10.850;2024-02-16T15:07:36;2.17;;;1.83;;
8171;SDS011;4127;47.908;10.850;2024-02-16T15:10:03;3.07;;;2.17;;